Latest Weather Observations for Mount Keith

IDW60801

Issued at 7:33 pm WST Thursday 25 August 2016 (issued every 30 minutes, with the page automatically refreshed every 10 minutes)

About weather observations | Map of weather stations | Latest weather observations for WA | Other Formats
Station Details ID: 512019 Name: MOUNT KEITH Lat: -27.29 Lon: 120.55 Height: 542.33 m
Data from the previous 72 hours. | See also: Recent months for locations in Western Australia
Date/Time
WST
Temp
°C
App
Temp
°C
Dew
Point
°C
Rel
Hum
%
Delta-T
°C
Wind Press
QNH
hPa
Press
MSL
hPa
Rain since
9am
mm
Dir  Spd
km/h
Gust
km/h
Spd
kts
Gust
kts
25/07:30pm 12.7 8.8 1.1 45 5.1 SE 11 15 6 8 1022.0 1021.2 0.0
25/07:00pm 13.6 9.7 1.3 43 5.4 ESE 11 13 6 7 1022.0 1021.2 0.0
25/06:30pm 14.1 10.1 0.7 40 5.9 ESE 11 13 6 7 1021.7 1020.9 0.0
25/06:00pm 15.6 11.6 0.2 35 6.8 E 11 13 6 7 1021.3 1020.4 0.0
25/05:30pm 17.0 12.1 -0.2 31 7.6 E 15 20 8 11 1021.1 1020.2 0.0
25/05:00pm 17.8 13.0 0.0 30 7.9 ENE 15 22 8 12 1021.0 1020.1 0.0
25/04:30pm 18.0 13.6 0.2 30 8.0 ENE 13 20 7 11 1020.8 1020.0 0.0
25/04:00pm 18.0 12.7 -0.3 29 8.1 ENE 17 28 9 15 1020.8 1020.0 0.0
25/03:30pm 18.2 13.4 0.4 30 8.0 E 15 22 8 12 1020.8 1020.0 0.0
25/03:00pm 18.1 12.9 0.3 30 8.0 E 17 24 9 13 1020.7 1019.9 0.0
25/02:30pm 17.6 12.9 0.7 32 7.6 ENE 15 24 8 13 1021.1 1020.2 0.0
25/02:00pm 17.3 13.4 1.3 34 7.3 NNE 11 22 6 12 1021.5 1020.6 0.0
25/01:30pm 16.9 12.7 1.4 35 7.1 ENE 13 24 7 13 1021.6 1020.8 0.0
25/01:00pm 17.1 12.2 1.9 36 7.0 NE 17 22 9 12 1021.7 1020.9 0.0
25/12:30pm 16.6 11.7 2.2 38 6.7 E 17 24 9 13 1022.2 1021.4 0.0
25/12:00pm 15.7 10.8 2.2 40 6.2 ENE 17 24 9 13 1022.7 1021.9 0.0
25/11:30am 16.3 11.5 2.7 40 6.3 E 17 26 9 14 1023.2 1022.4 0.0
25/11:00am 14.7 9.1 3.2 46 5.3 E 22 32 12 17 1023.6 1022.8 0.0
25/10:30am 13.8 8.1 3.0 48 5.0 E 22 32 12 17 1023.9 1023.1 0.0
25/10:00am 13.3 7.2 2.5 48 4.9 E 24 32 13 17 1024.1 1023.3 0.0
25/09:30am 12.3 6.5 2.5 51 4.4 ENE 22 33 12 18 1024.3 1023.5 0.0
25/09:00am 11.4 5.7 2.7 55 3.9 E 22 32 12 17 1024.2 1023.4 0.0
25/08:30am 11.1 6.4 3.2 58 3.6 E 17 24 9 13 1024.1 1023.3 0.0
25/08:00am 9.4 4.2 3.4 66 2.7 ESE 20 32 11 17 1023.9 1023.1 0.0
25/07:30am 8.4 3.8 3.5 71 2.2 ESE 17 26 9 14 1023.6 1022.8 0.0
25/07:00am 6.1 2.5 3.1 81 1.3 SE 11 13 6 7 1023.5 1022.7 0.0
25/06:30am 4.8 1.2 2.8 87 0.8 ESE 11 13 6 7 1023.3 1022.5 0.0
25/06:00am 4.7 1.1 2.7 87 0.8 ESE 11 13 6 7 1023.0 1022.1 0.0
25/05:30am 4.8 1.2 2.8 87 0.8 ESE 11 11 6 6 1022.7 1021.9 0.0
25/05:00am 5.3 2.1 2.8 84 1.1 ESE 9 11 5 6 1022.4 1021.6 0.0
25/04:30am 5.7 2.1 3.0 83 1.2 ESE 11 13 6 7 1022.1 1021.3 0.0
25/04:00am 6.0 2.8 3.0 81 1.3 ESE 9 13 5 7 1021.7 1020.9 0.0
25/03:30am 6.3 2.7 3.1 80 1.4 ESE 11 15 6 8 1021.7 1020.9 0.0
25/03:00am 6.7 2.7 3.1 78 1.6 ESE 13 17 7 9 1021.8 1021.0 0.0
25/02:30am 7.2 3.2 3.1 75 1.8 ESE 13 19 7 10 1021.8 1021.0 0.0
25/02:00am 7.5 3.2 3.0 73 2.0 ESE 15 19 8 10 1021.9 1021.1 0.0
25/01:30am 7.7 3.4 3.2 73 2.0 ESE 15 20 8 11 1021.9 1021.1 0.0
25/01:00am 7.9 3.1 2.8 70 2.2 SE 17 20 9 11 1022.1 1021.3 0.0
25/12:30am 7.6 3.0 1.7 66 2.5 SSE 15 17 8 9 1022.3 1021.5 0.0
25/12:00am 8.0 3.7 1.2 62 2.8 SSE 13 17 7 9 1022.1 1021.3 0.0
 
Date/Time
WST
Temp
°C
App
Temp
°C
Dew
Point
°C
Rel
Hum
%
Delta-T
°C
Wind Press
QNH
hPa
Press
MSL
hPa
Rain since
9am
mm
Dir  Spd
km/h
Gust
km/h
Spd
kts
Gust
kts
24/11:30pm 8.3 4.4 1.2 61 3.0 S 11 13 6 7 1022.3 1021.5 0.0
24/11:00pm 8.4 4.9 1.1 60 3.1 S 9 11 5 6 1022.3 1021.5 0.0
24/10:30pm 8.8 5.3 1.2 59 3.2 SSW 9 13 5 7 1022.4 1021.6 0.0
24/10:00pm 9.3 5.4 1.2 57 3.4 S 11 15 6 8 1022.2 1021.4 0.0
24/09:30pm 9.6 5.3 1.3 56 3.5 S 13 15 7 8 1022.3 1021.5 0.0
24/09:00pm 9.8 6.3 1.2 55 3.7 S 9 13 5 7 1022.6 1021.8 0.0
24/08:30pm 10.6 6.7 1.2 52 4.0 S 11 15 6 8 1022.5 1021.7 0.0
24/08:00pm 10.8 6.6 1.6 53 4.0 S 13 15 7 8 1022.5 1021.7 0.0
24/07:30pm 10.9 7.0 1.2 51 4.2 SSE 11 17 6 9 1022.5 1021.7 0.0
24/07:00pm 11.7 7.7 0.8 47 4.7 SSE 11 13 6 7 1022.4 1021.6 0.0
24/06:30pm 12.6 9.0 0.7 44 5.2 S 9 11 5 6 1022.2 1021.4 0.0
24/06:00pm 13.6 9.2 0.3 40 5.7 SSE 13 15 7 8 1022.0 1021.2 0.0
24/05:30pm 14.3 9.5 0.2 38 6.1 SSE 15 20 8 11 1021.6 1020.8 0.0
24/05:00pm 14.8 10.5 1.0 39 6.1 SSE 13 17 7 9 1021.3 1020.4 0.0
24/04:30pm 14.8 10.5 1.0 39 6.1 SSE 13 22 7 12 1020.8 1020.0 0.0
24/04:00pm 15.7 11.5 1.4 38 6.4 ESE 13 24 7 13 1020.6 1019.8 0.0
24/03:30pm 15.7 11.8 1.4 38 6.5 SSE 11 20 6 11 1020.3 1019.5 0.0
24/03:00pm 15.1 11.9 0.9 38 6.3 SW 7 13 4 7 1020.1 1019.3 0.0
24/02:30pm 14.9 10.7 1.4 40 6.1 SE 13 20 7 11 1020.0 1019.2 0.0
24/02:00pm 14.8 11.0 1.7 41 5.9 E 11 20 6 11 1020.0 1019.2 0.0
24/01:30pm 14.4 10.6 2.0 43 5.6 SSE 11 20 6 11 1020.1 1019.3 0.0
24/01:00pm 14.0 9.4 1.6 43 5.5 SSE 15 24 8 13 1020.6 1019.8 0.0
24/12:30pm 13.8 9.7 2.1 45 5.3 SE 13 20 7 11 1021.3 1020.4 0.0
24/12:00pm 13.2 8.4 2.4 48 4.9 SE 17 24 9 13 1021.8 1021.0 0.0
24/11:30am 13.4 9.4 2.6 48 4.9 ESE 13 20 7 11 1022.2 1021.4 0.0
24/11:00am 12.9 8.0 2.2 48 4.8 ESE 17 24 9 13 1022.5 1021.7 0.0
24/10:30am 12.2 7.6 3.7 56 3.9 SE 17 24 9 13 1022.7 1021.9 0.0
24/10:00am 11.0 7.0 4.7 65 2.9 ESE 15 20 8 11 1023.1 1022.2 0.0
24/09:30am 10.7 6.5 5.5 70 2.5 SE 17 24 9 13 1023.2 1022.4 0.0
24/09:00am 9.6 5.8 5.6 76 1.9 SE 15 20 8 11 1023.1 1022.2 0.0
24/08:30am 9.2 5.0 5.8 79 1.6 SE 17 24 9 13 1023.1 1022.2 0.0
24/08:00am 7.9 3.3 5.4 84 1.2 SE 19 22 10 12 1022.7 1021.9 0.0
24/07:30am 6.9 3.0 5.2 89 0.8 SE 15 19 8 10 1022.4 1021.6 0.0
24/07:00am 4.9 1.8 3.7 92 0.5 SSE 9 11 5 6 1022.3 1021.5 0.0
24/06:30am 3.5 0.2 2.3 92 0.5 SSE 9 9 5 5 1022.1 1021.3 0.0
24/06:00am 3.5 0.2 2.2 91 0.5 SSE 9 11 5 6 1022.0 1021.2 0.0
24/05:30am 3.8 0.5 2.2 89 0.7 SSE 9 11 5 6 1021.7 1020.9 0.0
24/05:00am 4.0 0.6 1.9 86 0.9 SSE 9 11 5 6 1021.4 1020.5 0.0
24/04:30am 3.7 0.6 1.3 84 1.0 SSE 7 9 4 5 1021.0 1020.1 0.0
24/04:00am 3.9 0.3 0.9 81 1.2 S 9 11 5 6 1020.7 1019.9 0.0
24/03:30am 4.3 1.1 1.0 79 1.3 S 7 11 4 6 1020.6 1019.8 0.0
24/03:00am 4.4 1.2 0.9 78 1.4 S 7 9 4 5 1020.5 1019.7 0.0
24/02:30am 4.4 0.8 0.7 77 1.5 SSE 9 11 5 6 1020.3 1019.5 0.0
24/02:00am 4.7 0.7 0.7 75 1.6 SSE 11 13 6 7 1020.3 1019.5 0.0
24/01:30am 4.9 1.3 0.5 73 1.8 SSE 9 11 5 6 1020.5 1019.7 0.0
24/01:00am 5.0 1.4 0.4 72 1.8 S 9 11 5 6 1020.6 1019.8 0.0
24/12:30am 5.7 1.4 0.7 70 2.0 S 13 15 7 8 1021.0 1020.1 0.0
24/12:00am 5.0 3.0 0.2 71 1.9 CALM 0 2 0 1 1020.8 1020.0 0.0
 
Date/Time
WST
Temp
°C
App
Temp
°C
Dew
Point
°C
Rel
Hum
%
Delta-T
°C
Wind Press
QNH
hPa
Press
MSL
hPa
Rain since
9am
mm
Dir  Spd
km/h
Gust
km/h
Spd
kts
Gust
kts
23/11:30pm 6.2 2.9 0.3 66 2.4 SSE 7 9 4 5 1020.7 1019.9 0.0
23/11:00pm 6.6 3.3 0.3 64 2.5 SSE 7 9 4 5 1021.0 1020.1 0.0
23/10:30pm 7.1 3.4 0.1 61 2.8 S 9 11 5 6 1021.2 1020.3 0.0
23/10:00pm 7.2 3.1 -0.3 59 3.0 S 11 11 6 6 1021.3 1020.4 0.0
23/09:30pm 7.3 3.6 -0.2 59 3.0 S 9 11 5 6 1021.2 1020.3 0.0
23/09:00pm 7.2 3.9 0.0 60 2.9 S 7 9 4 5 1021.2 1020.3 0.0
23/08:30pm 7.6 4.3 -0.1 58 3.1 SSE 7 9 4 5 1020.8 1020.0 0.0
23/08:00pm 9.1 5.3 -0.5 51 3.9 S 9 11 5 6 1020.5 1019.7 0.0
23/07:30pm 9.7 5.6 -0.5 49 4.2 S 11 11 6 6 1020.2 1019.4 0.0
23/07:00pm 10.2 6.4 -0.9 46 4.5 S 9 9 5 5 1019.8 1018.9 0.0
23/06:30pm 11.2 7.0 -1.2 42 5.1 SSE 11 13 6 7 1019.5 1018.6 0.0
23/06:00pm 12.0 8.0 -1.9 38 5.6 SSE 9 15 5 8 1019.3 1018.4 0.0
23/05:30pm 12.8 7.3 -2.3 35 6.1 S 17 20 9 11 1019.0 1018.1 0.0
23/05:00pm 13.4 7.6 -1.7 35 6.2 S 19 26 10 14 1018.6 1017.8 0.0
23/04:30pm 13.5 7.9 -2.8 32 6.6 SSE 17 22 9 12 1018.4 1017.6 0.0
23/04:00pm 13.6 7.7 -1.9 34 6.4 SSE 19 28 10 15 1018.4 1017.6 0.0
23/03:30pm 13.8 8.0 -1.8 34 6.5 S 19 30 10 16 1018.2 1017.3 0.0
23/03:00pm 14.1 8.1 -1.9 33 6.6 S 20 32 11 17 1018.0 1017.1 0.0
23/02:30pm 13.6 7.8 -1.6 35 6.3 S 19 30 10 16 1018.2 1017.3 0.0
23/02:00pm 13.6 7.6 -1.9 34 6.4 S 20 30 11 16 1018.2 1017.3 0.0
23/01:30pm 12.8 6.4 -1.9 36 6.0 S 22 30 12 16 1018.3 1017.5 0.0
23/01:00pm 13.1 7.4 0.5 42 5.4 S 20 28 11 15 1018.5 1017.7 0.0
23/12:30pm 12.0 5.4 -0.5 42 5.2 S 24 32 13 17 1019.1 1018.2 0.0
23/12:00pm 11.6 5.5 0.1 45 4.9 S 22 33 12 18 1019.5 1018.6 0.0
23/11:30am 11.9 6.0 1.5 49 4.6 SSE 22 32 12 17 1019.8 1018.9 0.0
23/11:00am 10.3 4.2 0.6 51 4.1 SSE 22 30 12 16 1020.1 1019.3 0.0
23/10:30am 9.8 3.1 1.2 55 3.7 SSE 26 35 14 19 1020.2 1019.4 0.0
23/10:00am 9.3 3.5 2.4 62 3.0 SSE 22 30 12 16 1020.5 1019.7 0.0
23/09:30am 9.1 3.0 2.7 64 2.8 SSE 24 30 13 16 1020.6 1019.8 0.0
23/09:00am 8.1 1.7 3.2 71 2.1 SSE 26 33 14 18 1020.6 1019.8 1.4
23/08:30am 6.7 0.6 2.8 76 1.7 SSE 24 33 13 18 1020.5 1019.7 1.4
23/08:00am 6.1 0.4 2.9 80 1.4 SSE 22 33 12 18 1020.2 1019.4 1.4
23/07:30am 5.1 0.0 2.8 85 1.0 S 19 26 10 14 1020.0 1019.2 1.4
23/07:00am 4.1 -1.0 2.8 91 0.5 S 19 28 10 15 1019.6 1018.7 1.4
23/06:30am 3.7 -1.1 2.8 94 0.4 S 17 22 9 12 1019.6 1018.7 1.4
23/06:00am 3.6 -1.6 2.6 93 0.4 S 19 22 10 12 1019.5 1018.6 1.4
23/05:30am 3.7 -1.1 2.8 94 0.4 SSW 17 22 9 12 1019.4 1018.5 1.4
23/05:00am 3.8 -1.3 2.8 93 0.4 SSW 19 24 10 13 1019.2 1018.3 1.4
23/04:30am 3.9 -0.8 2.9 93 0.4 SSW 17 22 9 12 1018.8 1018.0 1.4
23/04:00am 4.1 -0.6 2.9 92 0.5 SSW 17 22 9 12 1018.7 1017.9 1.4
23/03:30am 4.5 -0.6 3.0 90 0.6 SSW 19 24 10 13 1018.6 1017.8 1.4
23/03:00am 4.8 -0.3 3.0 88 0.8 SSW 19 24 10 13 1018.6 1017.8 1.4
23/02:30am 4.9 -0.2 3.1 88 0.8 SSW 19 22 10 12 1018.6 1017.8 1.4
23/02:00am 5.0 0.3 3.2 88 0.8 SW 17 22 9 12 1018.6 1017.8 1.4
23/01:30am 5.3 0.6 3.3 87 0.9 SSW 17 20 9 11 1018.5 1017.7 1.4
23/01:00am 5.3 1.0 3.3 87 0.9 SW 15 20 8 11 1018.6 1017.8 1.4
23/12:30am 5.7 1.0 3.2 84 1.1 SSW 17 20 9 11 1018.6 1017.8 1.4
23/12:00am 5.9 1.2 3.4 84 1.1 SSW 17 20 9 11 1018.6 1017.8 1.4
 
Date/Time
WST
Temp
°C
App
Temp
°C
Dew
Point
°C
Rel
Hum
%
Delta-T
°C
Wind Press
QNH
hPa
Press
MSL
hPa
Rain since
9am
mm
Dir  Spd
km/h
Gust
km/h
Spd
kts
Gust
kts
22/11:30pm 6.2 1.9 3.4 82 1.2 SSW 15 20 8 11 1018.6 1017.8 1.4
22/11:00pm 6.8 1.6 3.4 79 1.5 SSW 20 28 11 15 1018.5 1017.7 1.4
22/10:30pm 7.0 2.4 3.8 80 1.4 SSW 17 24 9 13 1018.6 1017.8 1.4
22/10:00pm 6.6 2.8 4.1 84 1.1 SW 13 19 7 10 1018.7 1017.9 1.4
22/09:30pm 6.9 3.2 4.6 85 1.0 SW 13 19 7 10 1018.8 1018.0 1.4
22/09:00pm 7.0 3.7 4.7 85 1.0 SW 11 13 6 7 1018.8 1018.0 1.4
22/08:30pm 7.6 3.9 4.6 81 1.4 SSW 13 17 7 9 1018.6 1017.8 1.4
22/08:00pm 8.1 4.1 4.7 79 1.5 SSW 15 20 8 11 1018.3 1017.5 1.4

Other Formats:

Comma delimited format used in spreadsheet applications
http://www.bom.gov.au/fwo/IDW60801/IDW60801.99434.axf

JavaScript Object Notation format (JSON) in row-major order
http://www.bom.gov.au/fwo/IDW60801/IDW60801.99434.json